sensor_id;sensor_type;location;lat;lon;timestamp;temperature;humidity
18426;DHT22;9340;48.756;9.226;2024-01-11T00:00:49;-4.10;99.90
18426;DHT22;9340;48.756;9.226;2024-01-11T00:03:15;-4.00;99.90
18426;DHT22;9340;48.756;9.226;2024-01-11T00:05:44;-4.00;99.90
18426;DHT22;9340;48.756;9.226;2024-01-11T00:08:11;-4.10;99.90
18426;DHT22;9340;48.756;9.226;2024-01-11T00:10:37;-4.00;99.90
18426;DHT22;9340;48.756;9.226;2024-01-11T00:13:04;-4.10;99.90
18426;DHT22;9340;48.756;9.226;2024-01-11T00:15:31;-4.10;99.90
18426;DHT22;9340;48.756;9.226;2024-01-11T00:17:58;-4.00;99.90
18426;DHT22;9340;48.756;9.226;2024-01-11T00:20:24;-3.90;99.90
18426;DHT22;9340;48.756;9.226;2024-01-11T00:22:52;-4.00;99.90
18426;DHT22;9340;48.756;9.226;2024-01-11T00:25:19;-4.00;99.90
18426;DHT22;9340;48.756;9.226;2024-01-11T00:27:45;-4.00;99.90
18426;DHT22;9340;48.756;9.226;2024-01-11T00:30:12;-4.00;99.90
18426;DHT22;9340;48.756;9.226;2024-01-11T00:32:39;-4.00;99.90
18426;DHT22;9340;48.756;9.226;2024-01-11T00:35:06;-4.10;99.90
18426;DHT22;9340;48.756;9.226;2024-01-11T00:37:33;-4.10;99.90
18426;DHT22;9340;48.756;9.226;2024-01-11T00:40:01;-4.20;99.90
18426;DHT22;9340;48.756;9.226;2024-01-11T00:42:27;-4.20;99.90
18426;DHT22;9340;48.756;9.226;2024-01-11T00:44:54;-4.20;99.90
18426;DHT22;9340;48.756;9.226;2024-01-11T00:47:21;-4.30;99.90
18426;DHT22;9340;48.756;9.226;2024-01-11T00:49:47;-4.20;99.90
18426;DHT22;9340;48.756;9.226;2024-01-11T00:52:14;-4.20;99.90
18426;DHT22;9340;48.756;9.226;2024-01-11T00:54:40;-4.20;99.90
18426;DHT22;9340;48.756;9.226;2024-01-11T00:57:08;-4.20;99.90
18426;DHT22;9340;48.756;9.226;2024-01-11T00:59:35;-4.20;99.90
18426;DHT22;9340;48.756;9.226;2024-01-11T01:02:02;-4.20;99.90
18426;DHT22;9340;48.756;9.226;2024-01-11T01:04:29;-4.20;99.90
18426;DHT22;9340;48.756;9.226;2024-01-11T01:06:55;-4.30;99.90
18426;DHT22;9340;48.756;9.226;2024-01-11T01:09:22;-4.30;99.90
18426;DHT22;9340;48.756;9.226;2024-01-11T01:11:49;-4.30;99.90
18426;DHT22;9340;48.756;9.226;2024-01-11T01:14:17;-4.40;99.90
18426;DHT22;9340;48.756;9.226;2024-01-11T01:16:44;-4.40;99.90
18426;DHT22;9340;48.756;9.226;2024-01-11T01:19:11;-4.40;99.90
18426;DHT22;9340;48.756;9.226;2024-01-11T01:21:37;-4.40;99.90
18426;DHT22;9340;48.756;9.226;2024-01-11T01:24:04;-4.50;99.90
18426;DHT22;9340;48.756;9.226;2024-01-11T01:26:31;-4.50;99.90
18426;DHT22;9340;48.756;9.226;2024-01-11T01:28:57;-4.50;99.90
18426;DHT22;9340;48.756;9.226;2024-01-11T01:31:25;-4.50;99.90
18426;DHT22;9340;48.756;9.226;2024-01-11T01:33:52;-4.40;99.90
18426;DHT22;9340;48.756;9.226;2024-01-11T01:36:18;-4.40;99.90
18426;DHT22;9340;48.756;9.226;2024-01-11T01:38:45;-4.40;99.90
18426;DHT22;9340;48.756;9.226;2024-01-11T01:41:12;-4.30;99.90
18426;DHT22;9340;48.756;9.226;2024-01-11T01:43:38;-4.20;99.90
18426;DHT22;9340;48.756;9.226;2024-01-11T01:46:05;-4.40;99.90
18426;DHT22;9340;48.756;9.226;2024-01-11T01:48:34;-4.60;99.90
18426;DHT22;9340;48.756;9.226;2024-01-11T01:51:01;-4.50;99.90
18426;DHT22;9340;48.756;9.226;2024-01-11T01:53:28;-4.50;99.90
18426;DHT22;9340;48.756;9.226;2024-01-11T01:55:55;-4.50;99.90
18426;DHT22;9340;48.756;9.226;2024-01-11T01:58:22;-4.40;99.90
18426;DHT22;9340;48.756;9.226;2024-01-11T02:00:50;-4.40;99.90
18426;DHT22;9340;48.756;9.226;2024-01-11T02:03:17;-4.40;99.90
18426;DHT22;9340;48.756;9.226;2024-01-11T02:05:46;-4.40;99.90
18426;DHT22;9340;48.756;9.226;2024-01-11T02:08:16;-4.50;99.90
18426;DHT22;9340;48.756;9.226;2024-01-11T02:10:46;-4.40;99.90
18426;DHT22;9340;48.756;9.226;2024-01-11T02:13:14;-4.40;99.90
18426;DHT22;9340;48.756;9.226;2024-01-11T02:15:40;-4.40;99.90
18426;DHT22;9340;48.756;9.226;2024-01-11T02:18:07;-4.40;99.90
18426;DHT22;9340;48.756;9.226;2024-01-11T02:20:34;-4.40;99.90
18426;DHT22;9340;48.756;9.226;2024-01-11T02:23:05;-4.40;99.90
18426;DHT22;9340;48.756;9.226;2024-01-11T02:25:36;-4.40;99.90
18426;DHT22;9340;48.756;9.226;2024-01-11T02:28:03;-4.30;99.90
18426;DHT22;9340;48.756;9.226;2024-01-11T02:30:30;-4.30;99.90
18426;DHT22;9340;48.756;9.226;2024-01-11T02:32:57;-4.40;99.90
18426;DHT22;9340;48.756;9.226;2024-01-11T02:35:24;-4.40;99.90
18426;DHT22;9340;48.756;9.226;2024-01-11T02:37:52;-4.40;99.90
18426;DHT22;9340;48.756;9.226;2024-01-11T02:40:19;-4.50;99.90
18426;DHT22;9340;48.756;9.226;2024-01-11T02:42:47;-4.50;99.90
18426;DHT22;9340;48.756;9.226;2024-01-11T02:45:14;-4.60;99.90
18426;DHT22;9340;48.756;9.226;2024-01-11T02:47:40;-4.60;99.90
18426;DHT22;9340;48.756;9.226;2024-01-11T02:50:08;-4.60;99.90
18426;DHT22;9340;48.756;9.226;2024-01-11T02:52:37;-4.70;99.90
18426;DHT22;9340;48.756;9.226;2024-01-11T02:55:04;-4.70;99.90
18426;DHT22;9340;48.756;9.226;2024-01-11T02:57:31;-4.70;99.90
18426;DHT22;9340;48.756;9.226;2024-01-11T02:59:59;-4.70;99.90
18426;DHT22;9340;48.756;9.226;2024-01-11T03:02:25;-4.70;99.90
18426;DHT22;9340;48.756;9.226;2024-01-11T03:04:52;-4.60;99.90
18426;DHT22;9340;48.756;9.226;2024-01-11T03:07:19;-4.60;99.90
18426;DHT22;9340;48.756;9.226;2024-01-11T03:09:45;-4.60;99.90
18426;DHT22;9340;48.756;9.226;2024-01-11T03:12:12;-4.60;99.90
18426;DHT22;9340;48.756;9.226;2024-01-11T03:14:39;-4.70;99.90
18426;DHT22;9340;48.756;9.226;2024-01-11T03:17:07;-4.70;99.90
18426;DHT22;9340;48.756;9.226;2024-01-11T03:19:33;-4.70;99.90
18426;DHT22;9340;48.756;9.226;2024-01-11T03:22:00;-4.60;99.90
18426;DHT22;9340;48.756;9.226;2024-01-11T03:24:31;-4.70;99.90
18426;DHT22;9340;48.756;9.226;2024-01-11T03:26:58;-4.70;99.90
18426;DHT22;9340;48.756;9.226;2024-01-11T03:29:24;-4.70;99.90
18426;DHT22;9340;48.756;9.226;2024-01-11T03:31:51;-4.80;99.90
18426;DHT22;9340;48.756;9.226;2024-01-11T03:34:19;-4.80;99.90
18426;DHT22;9340;48.756;9.226;2024-01-11T03:36:46;-4.60;99.90
18426;DHT22;9340;48.756;9.226;2024-01-11T03:39:12;-4.70;99.90
18426;DHT22;9340;48.756;9.226;2024-01-11T03:41:43;-4.70;99.90
18426;DHT22;9340;48.756;9.226;2024-01-11T03:44:10;-4.70;99.90
18426;DHT22;9340;48.756;9.226;2024-01-11T03:46:36;-4.70;99.90
18426;DHT22;9340;48.756;9.226;2024-01-11T03:49:03;-4.70;99.90
18426;DHT22;9340;48.756;9.226;2024-01-11T03:51:31;-4.60;99.90
18426;DHT22;9340;48.756;9.226;2024-01-11T03:53:58;-4.70;99.90
18426;DHT22;9340;48.756;9.226;2024-01-11T03:56:24;-4.90;99.90
18426;DHT22;9340;48.756;9.226;2024-01-11T03:58:51;-4.90;99.90
18426;DHT22;9340;48.756;9.226;2024-01-11T04:01:17;-5.00;99.90
18426;DHT22;9340;48.756;9.226;2024-01-11T04:03:44;-4.90;99.90
18426;DHT22;9340;48.756;9.226;2024-01-11T04:06:19;-4.90;99.90
18426;DHT22;9340;48.756;9.226;2024-01-11T04:08:47;-4.90;99.90
18426;DHT22;9340;48.756;9.226;2024-01-11T04:11:14;-4.90;99.90
18426;DHT22;9340;48.756;9.226;2024-01-11T04:13:41;-4.90;99.90
18426;DHT22;9340;48.756;9.226;2024-01-11T04:16:08;-5.00;99.90
18426;DHT22;9340;48.756;9.226;2024-01-11T04:18:35;-5.00;99.90
18426;DHT22;9340;48.756;9.226;2024-01-11T04:21:02;-4.90;99.90
18426;DHT22;9340;48.756;9.226;2024-01-11T04:23:29;-4.90;99.90
18426;DHT22;9340;48.756;9.226;2024-01-11T04:25:57;-4.90;99.90
18426;DHT22;9340;48.756;9.226;2024-01-11T04:28:24;-4.90;99.90
18426;DHT22;9340;48.756;9.226;2024-01-11T04:30:50;-4.90;99.90
18426;DHT22;9340;48.756;9.226;2024-01-11T04:33:17;-4.90;99.90
18426;DHT22;9340;48.756;9.226;2024-01-11T04:35:44;-5.00;99.90
18426;DHT22;9340;48.756;9.226;2024-01-11T04:38:10;-5.00;99.90
18426;DHT22;9340;48.756;9.226;2024-01-11T04:40:37;-4.90;99.90
18426;DHT22;9340;48.756;9.226;2024-01-11T04:43:05;-4.80;99.90
18426;DHT22;9340;48.756;9.226;2024-01-11T04:45:34;-4.80;99.90
18426;DHT22;9340;48.756;9.226;2024-01-11T04:48:01;-4.90;99.90
18426;DHT22;9340;48.756;9.226;2024-01-11T04:50:27;-4.90;99.90
18426;DHT22;9340;48.756;9.226;2024-01-11T04:52:54;-5.00;99.90
18426;DHT22;9340;48.756;9.226;2024-01-11T04:55:20;-5.00;99.90
18426;DHT22;9340;48.756;9.226;2024-01-11T04:57:47;-5.00;99.90
18426;DHT22;9340;48.756;9.226;2024-01-11T05:00:16;-5.00;99.90
18426;DHT22;9340;48.756;9.226;2024-01-11T05:02:43;-5.00;99.90
18426;DHT22;9340;48.756;9.226;2024-01-11T05:05:09;-4.90;99.90
18426;DHT22;9340;48.756;9.226;2024-01-11T05:07:36;-4.90;99.90
18426;DHT22;9340;48.756;9.226;2024-01-11T05:10:03;-5.10;99.90
18426;DHT22;9340;48.756;9.226;2024-01-11T05:12:30;-5.20;99.90
18426;DHT22;9340;48.756;9.226;2024-01-11T05:14:56;-5.20;99.90
18426;DHT22;9340;48.756;9.226;2024-01-11T05:17:25;-5.20;99.90
18426;DHT22;9340;48.756;9.226;2024-01-11T05:19:52;-5.20;99.90
18426;DHT22;9340;48.756;9.226;2024-01-11T05:22:19;-5.20;99.90
18426;DHT22;9340;48.756;9.226;2024-01-11T05:24:47;-5.20;99.90
18426;DHT22;9340;48.756;9.226;2024-01-11T05:27:13;-5.20;99.90
18426;DHT22;9340;48.756;9.226;2024-01-11T05:29:40;-5.20;99.90
18426;DHT22;9340;48.756;9.226;2024-01-11T05:32:07;-5.20;99.90
18426;DHT22;9340;48.756;9.226;2024-01-11T05:34:35;-5.10;99.90
18426;DHT22;9340;48.756;9.226;2024-01-11T05:37:01;-5.00;99.90
18426;DHT22;9340;48.756;9.226;2024-01-11T05:39:28;-5.00;99.90
18426;DHT22;9340;48.756;9.226;2024-01-11T05:41:55;-5.00;99.90
18426;DHT22;9340;48.756;9.226;2024-01-11T05:44:22;-5.00;99.90
18426;DHT22;9340;48.756;9.226;2024-01-11T05:46:48;-5.00;99.90
18426;DHT22;9340;48.756;9.226;2024-01-11T05:49:15;-5.00;99.90
18426;DHT22;9340;48.756;9.226;2024-01-11T05:51:43;-5.10;99.90
18426;DHT22;9340;48.756;9.226;2024-01-11T05:54:09;-5.10;99.90
18426;DHT22;9340;48.756;9.226;2024-01-11T05:56:36;-5.20;99.90
18426;DHT22;9340;48.756;9.226;2024-01-11T05:59:03;-5.40;99.90
18426;DHT22;9340;48.756;9.226;2024-01-11T06:01:30;-5.40;99.90
18426;DHT22;9340;48.756;9.226;2024-01-11T06:03:57;-5.40;99.90
18426;DHT22;9340;48.756;9.226;2024-01-11T06:06:24;-5.30;99.90
18426;DHT22;9340;48.756;9.226;2024-01-11T06:08:51;-5.30;99.90
18426;DHT22;9340;48.756;9.226;2024-01-11T06:11:18;-5.30;99.90
18426;DHT22;9340;48.756;9.226;2024-01-11T06:13:45;-5.30;99.90
18426;DHT22;9340;48.756;9.226;2024-01-11T06:16:12;-5.40;99.90
18426;DHT22;9340;48.756;9.226;2024-01-11T06:18:39;-5.30;99.90
18426;DHT22;9340;48.756;9.226;2024-01-11T06:21:06;-5.30;99.90
18426;DHT22;9340;48.756;9.226;2024-01-11T06:23:32;-5.30;99.90
18426;DHT22;9340;48.756;9.226;2024-01-11T06:26:00;-5.30;99.90
18426;DHT22;9340;48.756;9.226;2024-01-11T06:28:27;-5.30;99.90
18426;DHT22;9340;48.756;9.226;2024-01-11T06:30:53;-5.40;99.90
18426;DHT22;9340;48.756;9.226;2024-01-11T06:33:20;-5.30;99.90
18426;DHT22;9340;48.756;9.226;2024-01-11T06:35:47;-5.30;99.90
18426;DHT22;9340;48.756;9.226;2024-01-11T06:38:13;-5.20;99.90
18426;DHT22;9340;48.756;9.226;2024-01-11T06:40:40;-5.30;99.90
18426;DHT22;9340;48.756;9.226;2024-01-11T06:43:09;-5.20;99.90
18426;DHT22;9340;48.756;9.226;2024-01-11T06:45:36;-5.20;99.90
18426;DHT22;9340;48.756;9.226;2024-01-11T06:48:05;-5.10;99.90
18426;DHT22;9340;48.756;9.226;2024-01-11T06:50:32;-5.20;99.90
18426;DHT22;9340;48.756;9.226;2024-01-11T06:52:59;-5.20;99.90
18426;DHT22;9340;48.756;9.226;2024-01-11T06:55:25;-5.20;99.90
18426;DHT22;9340;48.756;9.226;2024-01-11T06:57:52;-5.20;99.90
18426;DHT22;9340;48.756;9.226;2024-01-11T07:00:20;-5.20;99.90
18426;DHT22;9340;48.756;9.226;2024-01-11T07:02:47;-5.20;99.90
18426;DHT22;9340;48.756;9.226;2024-01-11T07:05:14;-5.20;99.90
18426;DHT22;9340;48.756;9.226;2024-01-11T07:07:41;-5.20;99.90
18426;DHT22;9340;48.756;9.226;2024-01-11T07:10:08;-5.20;99.90
18426;DHT22;9340;48.756;9.226;2024-01-11T07:12:34;-5.30;99.90
18426;DHT22;9340;48.756;9.226;2024-01-11T07:15:03;-5.30;99.90
18426;DHT22;9340;48.756;9.226;2024-01-11T07:17:31;-5.30;99.90
18426;DHT22;9340;48.756;9.226;2024-01-11T07:19:58;-5.30;99.90
18426;DHT22;9340;48.756;9.226;2024-01-11T07:22:25;-5.20;99.90
18426;DHT22;9340;48.756;9.226;2024-01-11T07:24:52;-5.20;99.90
18426;DHT22;9340;48.756;9.226;2024-01-11T07:27:18;-5.30;99.90
18426;DHT22;9340;48.756;9.226;2024-01-11T07:29:45;-5.30;99.90
18426;DHT22;9340;48.756;9.226;2024-01-11T07:32:12;-5.30;99.90
18426;DHT22;9340;48.756;9.226;2024-01-11T07:34:40;-5.30;99.90
18426;DHT22;9340;48.756;9.226;2024-01-11T07:37:06;-5.20;99.90
18426;DHT22;9340;48.756;9.226;2024-01-11T07:39:33;-5.20;99.90
18426;DHT22;9340;48.756;9.226;2024-01-11T07:42:02;-5.10;99.90
18426;DHT22;9340;48.756;9.226;2024-01-11T07:44:29;-5.10;99.90
18426;DHT22;9340;48.756;9.226;2024-01-11T07:46:55;-5.00;99.90
18426;DHT22;9340;48.756;9.226;2024-01-11T07:49:22;-5.10;99.90
18426;DHT22;9340;48.756;9.226;2024-01-11T07:51:50;-5.00;99.90
18426;DHT22;9340;48.756;9.226;2024-01-11T07:54:17;-4.90;99.90
18426;DHT22;9340;48.756;9.226;2024-01-11T07:56:43;-5.10;99.90
18426;DHT22;9340;48.756;9.226;2024-01-11T07:59:10;-5.20;99.90
18426;DHT22;9340;48.756;9.226;2024-01-11T08:01:39;-5.20;99.90
18426;DHT22;9340;48.756;9.226;2024-01-11T08:04:06;-5.10;99.90
18426;DHT22;9340;48.756;9.226;2024-01-11T08:06:33;-4.90;99.90
18426;DHT22;9340;48.756;9.226;2024-01-11T08:09:01;-4.80;99.90
18426;DHT22;9340;48.756;9.226;2024-01-11T08:11:29;-4.70;99.90
18426;DHT22;9340;48.756;9.226;2024-01-11T08:13:56;-4.70;99.90
18426;DHT22;9340;48.756;9.226;2024-01-11T08:16:23;-4.60;99.90
18426;DHT22;9340;48.756;9.226;2024-01-11T08:18:50;-4.50;99.90
18426;DHT22;9340;48.756;9.226;2024-01-11T08:21:16;-4.40;99.90
18426;DHT22;9340;48.756;9.226;2024-01-11T08:23:43;-4.40;99.90
18426;DHT22;9340;48.756;9.226;2024-01-11T08:26:12;-4.30;99.90
18426;DHT22;9340;48.756;9.226;2024-01-11T08:28:39;-4.30;99.90
18426;DHT22;9340;48.756;9.226;2024-01-11T08:31:06;-4.20;99.90
18426;DHT22;9340;48.756;9.226;2024-01-11T08:33:34;-4.10;99.90
18426;DHT22;9340;48.756;9.226;2024-01-11T08:36:02;-3.90;99.90
18426;DHT22;9340;48.756;9.226;2024-01-11T08:38:29;-3.80;99.90
18426;DHT22;9340;48.756;9.226;2024-01-11T08:40:56;-3.70;99.90
18426;DHT22;9340;48.756;9.226;2024-01-11T08:43:25;-3.60;99.90
18426;DHT22;9340;48.756;9.226;2024-01-11T08:45:52;-3.50;99.90
18426;DHT22;9340;48.756;9.226;2024-01-11T08:48:18;-3.40;99.90
18426;DHT22;9340;48.756;9.226;2024-01-11T08:50:45;-3.40;99.90
18426;DHT22;9340;48.756;9.226;2024-01-11T08:53:12;-3.30;99.90
18426;DHT22;9340;48.756;9.226;2024-01-11T08:55:38;-3.20;99.90
18426;DHT22;9340;48.756;9.226;2024-01-11T08:58:05;-3.10;99.90
18426;DHT22;9340;48.756;9.226;2024-01-11T09:00:33;-3.00;99.90
18426;DHT22;9340;48.756;9.226;2024-01-11T09:03:00;-2.90;99.90
18426;DHT22;9340;48.756;9.226;2024-01-11T09:05:26;-3.00;99.90
18426;DHT22;9340;48.756;9.226;2024-01-11T09:07:53;-3.00;99.90
18426;DHT22;9340;48.756;9.226;2024-01-11T09:10:20;-2.90;99.90
18426;DHT22;9340;48.756;9.226;2024-01-11T09:12:46;-2.80;99.90
18426;DHT22;9340;48.756;9.226;2024-01-11T09:15:13;-2.80;99.90
18426;DHT22;9340;48.756;9.226;2024-01-11T09:17:41;-2.70;99.90
18426;DHT22;9340;48.756;9.226;2024-01-11T09:20:09;-2.70;99.90
18426;DHT22;9340;48.756;9.226;2024-01-11T09:22:39;-2.50;99.90
18426;DHT22;9340;48.756;9.226;2024-01-11T09:25:07;-2.50;99.90
18426;DHT22;9340;48.756;9.226;2024-01-11T09:27:33;-2.40;99.90
18426;DHT22;9340;48.756;9.226;2024-01-11T09:30:01;-2.40;99.90
18426;DHT22;9340;48.756;9.226;2024-01-11T09:32:27;-2.30;99.90
18426;DHT22;9340;48.756;9.226;2024-01-11T09:34:56;-2.20;99.90
18426;DHT22;9340;48.756;9.226;2024-01-11T09:37:23;-2.10;99.90
18426;DHT22;9340;48.756;9.226;2024-01-11T09:39:50;-2.00;99.90
18426;DHT22;9340;48.756;9.226;2024-01-11T09:42:18;-2.00;99.90
18426;DHT22;9340;48.756;9.226;2024-01-11T09:44:45;-1.90;99.90
18426;DHT22;9340;48.756;9.226;2024-01-11T09:47:14;-1.80;99.90
18426;DHT22;9340;48.756;9.226;2024-01-11T09:49:42;-1.80;99.90
18426;DHT22;9340;48.756;9.226;2024-01-11T09:52:11;-1.60;99.90
18426;DHT22;9340;48.756;9.226;2024-01-11T09:54:40;-1.50;99.90
18426;DHT22;9340;48.756;9.226;2024-01-11T09:57:07;-1.40;99.90
18426;DHT22;9340;48.756;9.226;2024-01-11T09:59:36;-1.30;99.90
18426;DHT22;9340;48.756;9.226;2024-01-11T10:02:03;-1.20;99.90
18426;DHT22;9340;48.756;9.226;2024-01-11T10:04:33;-1.20;99.90
18426;DHT22;9340;48.756;9.226;2024-01-11T10:07:01;-1.20;99.90
18426;DHT22;9340;48.756;9.226;2024-01-11T10:09:31;-1.20;99.90
18426;DHT22;9340;48.756;9.226;2024-01-11T10:11:58;-1.10;99.90
18426;DHT22;9340;48.756;9.226;2024-01-11T10:14:25;-1.10;99.90
18426;DHT22;9340;48.756;9.226;2024-01-11T10:16:54;-1.00;99.90
18426;DHT22;9340;48.756;9.226;2024-01-11T10:19:20;-0.90;99.90
18426;DHT22;9340;48.756;9.226;2024-01-11T10:21:47;-0.90;99.90
18426;DHT22;9340;48.756;9.226;2024-01-11T10:24:18;-0.90;99.90
18426;DHT22;9340;48.756;9.226;2024-01-11T10:26:47;-0.80;99.90
18426;DHT22;9340;48.756;9.226;2024-01-11T10:29:13;-0.80;99.90
18426;DHT22;9340;48.756;9.226;2024-01-11T10:31:40;-0.70;99.90
18426;DHT22;9340;48.756;9.226;2024-01-11T10:34:07;-0.70;99.90
18426;DHT22;9340;48.756;9.226;2024-01-11T10:36:34;-0.60;99.90
18426;DHT22;9340;48.756;9.226;2024-01-11T10:39:02;-0.50;99.90
18426;DHT22;9340;48.756;9.226;2024-01-11T10:41:32;-0.50;99.90
18426;DHT22;9340;48.756;9.226;2024-01-11T10:44:06;-0.30;99.90
18426;DHT22;9340;48.756;9.226;2024-01-11T10:46:39;-0.30;99.90
18426;DHT22;9340;48.756;9.226;2024-01-11T10:49:06;-0.20;99.90
18426;DHT22;9340;48.756;9.226;2024-01-11T10:51:34;-0.20;99.90
18426;DHT22;9340;48.756;9.226;2024-01-11T10:54:01;-0.10;99.90
18426;DHT22;9340;48.756;9.226;2024-01-11T10:56:28;0.00;99.90
18426;DHT22;9340;48.756;9.226;2024-01-11T10:58:55;-0.10;99.90
18426;DHT22;9340;48.756;9.226;2024-01-11T11:01:25;0.00;99.90
18426;DHT22;9340;48.756;9.226;2024-01-11T11:03:52;0.00;99.90
18426;DHT22;9340;48.756;9.226;2024-01-11T11:06:21;0.00;99.90
18426;DHT22;9340;48.756;9.226;2024-01-11T11:08:49;0.00;99.90
18426;DHT22;9340;48.756;9.226;2024-01-11T11:11:17;-0.10;99.90
18426;DHT22;9340;48.756;9.226;2024-01-11T11:13:46;-0.50;99.90
18426;DHT22;9340;48.756;9.226;2024-01-11T11:16:14;-0.50;99.90
18426;DHT22;9340;48.756;9.226;2024-01-11T11:18:43;-0.40;99.90
18426;DHT22;9340;48.756;9.226;2024-01-11T11:21:10;-0.50;99.90
18426;DHT22;9340;48.756;9.226;2024-01-11T11:23:37;-0.50;99.90
18426;DHT22;9340;48.756;9.226;2024-01-11T11:26:05;-0.30;99.90
18426;DHT22;9340;48.756;9.226;2024-01-11T11:28:33;-0.30;99.90
18426;DHT22;9340;48.756;9.226;2024-01-11T11:31:02;-0.40;99.90
18426;DHT22;9340;48.756;9.226;2024-01-11T11:33:29;-0.40;99.90
18426;DHT22;9340;48.756;9.226;2024-01-11T11:35:58;-0.20;99.90
18426;DHT22;9340;48.756;9.226;2024-01-11T11:38:27;-0.10;99.90
18426;DHT22;9340;48.756;9.226;2024-01-11T11:40:56;-0.20;99.90
18426;DHT22;9340;48.756;9.226;2024-01-11T11:43:23;-0.20;99.90
18426;DHT22;9340;48.756;9.226;2024-01-11T11:45:51;-0.20;99.90
18426;DHT22;9340;48.756;9.226;2024-01-11T11:48:48;-0.20;99.90
18426;DHT22;9340;48.756;9.226;2024-01-11T11:51:18;-0.20;99.90
18426;DHT22;9340;48.756;9.226;2024-01-11T11:53:46;-0.20;99.90
18426;DHT22;9340;48.756;9.226;2024-01-11T11:56:13;0.00;99.90
18426;DHT22;9340;48.756;9.226;2024-01-11T11:58:43;-0.10;99.90
18426;DHT22;9340;48.756;9.226;2024-01-11T12:01:10;-0.10;99.90
18426;DHT22;9340;48.756;9.226;2024-01-11T12:03:38;0.00;99.90
18426;DHT22;9340;48.756;9.226;2024-01-11T12:06:07;0.20;99.90
18426;DHT22;9340;48.756;9.226;2024-01-11T12:08:37;0.40;99.90
18426;DHT22;9340;48.756;9.226;2024-01-11T12:11:05;0.50;99.90
18426;DHT22;9340;48.756;9.226;2024-01-11T12:13:32;0.50;99.90
18426;DHT22;9340;48.756;9.226;2024-01-11T12:15:59;0.40;99.90
18426;DHT22;9340;48.756;9.226;2024-01-11T12:18:26;0.50;99.90
18426;DHT22;9340;48.756;9.226;2024-01-11T12:20:52;0.60;99.90
18426;DHT22;9340;48.756;9.226;2024-01-11T12:23:19;0.70;99.90
18426;DHT22;9340;48.756;9.226;2024-01-11T12:25:47;0.80;99.90
18426;DHT22;9340;48.756;9.226;2024-01-11T12:28:14;0.90;99.90
18426;DHT22;9340;48.756;9.226;2024-01-11T12:30:41;0.90;99.90
18426;DHT22;9340;48.756;9.226;2024-01-11T12:33:08;1.00;99.90
18426;DHT22;9340;48.756;9.226;2024-01-11T12:35:36;1.10;99.90
18426;DHT22;9340;48.756;9.226;2024-01-11T12:38:04;1.10;99.90
18426;DHT22;9340;48.756;9.226;2024-01-11T12:40:32;0.70;99.90
18426;DHT22;9340;48.756;9.226;2024-01-11T12:43:00;0.70;99.90
18426;DHT22;9340;48.756;9.226;2024-01-11T12:45:27;0.60;99.90
18426;DHT22;9340;48.756;9.226;2024-01-11T12:47:55;0.60;99.90
18426;DHT22;9340;48.756;9.226;2024-01-11T12:50:22;0.80;99.90
18426;DHT22;9340;48.756;9.226;2024-01-11T12:53:04;0.90;99.90
18426;DHT22;9340;48.756;9.226;2024-01-11T12:55:31;0.80;99.90
18426;DHT22;9340;48.756;9.226;2024-01-11T12:58:05;0.80;99.90
18426;DHT22;9340;48.756;9.226;2024-01-11T13:00:32;0.60;99.90
18426;DHT22;9340;48.756;9.226;2024-01-11T13:02:59;0.60;99.90
18426;DHT22;9340;48.756;9.226;2024-01-11T13:05:26;0.70;99.90
18426;DHT22;9340;48.756;9.226;2024-01-11T13:07:52;0.80;99.90
18426;DHT22;9340;48.756;9.226;2024-01-11T13:10:19;0.80;99.90
18426;DHT22;9340;48.756;9.226;2024-01-11T13:12:45;0.70;99.90
18426;DHT22;9340;48.756;9.226;2024-01-11T13:15:13;0.70;99.90
18426;DHT22;9340;48.756;9.226;2024-01-11T13:17:40;0.70;99.90
18426;DHT22;9340;48.756;9.226;2024-01-11T13:20:07;0.70;99.90
18426;DHT22;9340;48.756;9.226;2024-01-11T13:22:34;0.80;99.90
18426;DHT22;9340;48.756;9.226;2024-01-11T13:25:01;0.80;99.90
18426;DHT22;9340;48.756;9.226;2024-01-11T13:27:27;0.80;99.90
18426;DHT22;9340;48.756;9.226;2024-01-11T13:29:54;0.90;99.90
18426;DHT22;9340;48.756;9.226;2024-01-11T13:32:22;0.90;99.90
18426;DHT22;9340;48.756;9.226;2024-01-11T13:34:49;0.70;99.90
18426;DHT22;9340;48.756;9.226;2024-01-11T13:37:18;0.70;99.90
18426;DHT22;9340;48.756;9.226;2024-01-11T13:39:45;0.70;99.90
18426;DHT22;9340;48.756;9.226;2024-01-11T13:42:11;0.80;99.90
18426;DHT22;9340;48.756;9.226;2024-01-11T13:44:39;0.90;99.90
18426;DHT22;9340;48.756;9.226;2024-01-11T13:47:05;1.00;99.90
18426;DHT22;9340;48.756;9.226;2024-01-11T13:49:33;0.90;99.90
18426;DHT22;9340;48.756;9.226;2024-01-11T13:52:00;0.70;99.90
18426;DHT22;9340;48.756;9.226;2024-01-11T13:54:29;0.70;99.90
18426;DHT22;9340;48.756;9.226;2024-01-11T13:56:56;0.80;99.90
18426;DHT22;9340;48.756;9.226;2024-01-11T13:59:23;0.80;99.90
18426;DHT22;9340;48.756;9.226;2024-01-11T14:01:50;0.80;99.90
18426;DHT22;9340;48.756;9.226;2024-01-11T14:04:16;0.90;99.90
18426;DHT22;9340;48.756;9.226;2024-01-11T14:06:45;0.90;99.90
18426;DHT22;9340;48.756;9.226;2024-01-11T14:09:11;0.70;99.90
18426;DHT22;9340;48.756;9.226;2024-01-11T14:11:38;0.80;99.90
18426;DHT22;9340;48.756;9.226;2024-01-11T14:14:05;0.80;99.90
18426;DHT22;9340;48.756;9.226;2024-01-11T14:16:32;0.80;99.90
18426;DHT22;9340;48.756;9.226;2024-01-11T14:18:58;0.90;99.90
18426;DHT22;9340;48.756;9.226;2024-01-11T14:21:26;0.80;99.90
18426;DHT22;9340;48.756;9.226;2024-01-11T14:23:54;0.70;99.90
18426;DHT22;9340;48.756;9.226;2024-01-11T14:26:21;0.70;99.90
18426;DHT22;9340;48.756;9.226;2024-01-11T14:28:48;0.80;99.90
18426;DHT22;9340;48.756;9.226;2024-01-11T14:31:15;0.80;99.90
18426;DHT22;9340;48.756;9.226;2024-01-11T14:33:41;0.80;99.90
18426;DHT22;9340;48.756;9.226;2024-01-11T14:36:08;0.70;99.90
18426;DHT22;9340;48.756;9.226;2024-01-11T14:38:35;0.70;99.90
18426;DHT22;9340;48.756;9.226;2024-01-11T14:41:03;0.70;99.90
18426;DHT22;9340;48.756;9.226;2024-01-11T14:43:30;0.80;99.90
18426;DHT22;9340;48.756;9.226;2024-01-11T14:45:59;0.70;99.90
18426;DHT22;9340;48.756;9.226;2024-01-11T14:48:26;0.70;99.90
18426;DHT22;9340;48.756;9.226;2024-01-11T14:50:56;0.60;99.90
18426;DHT22;9340;48.756;9.226;2024-01-11T14:53:22;0.60;99.90
18426;DHT22;9340;48.756;9.226;2024-01-11T14:55:49;0.50;99.90
18426;DHT22;9340;48.756;9.226;2024-01-11T14:58:17;0.50;99.90
18426;DHT22;9340;48.756;9.226;2024-01-11T15:00:44;0.50;99.90
18426;DHT22;9340;48.756;9.226;2024-01-11T15:03:11;0.40;99.90
18426;DHT22;9340;48.756;9.226;2024-01-11T15:05:38;0.30;99.90
18426;DHT22;9340;48.756;9.226;2024-01-11T15:08:05;0.30;99.90
18426;DHT22;9340;48.756;9.226;2024-01-11T15:10:32;0.20;99.90
18426;DHT22;9340;48.756;9.226;2024-01-11T15:12:58;0.10;99.90
18426;DHT22;9340;48.756;9.226;2024-01-11T15:15:26;0.00;99.90
18426;DHT22;9340;48.756;9.226;2024-01-11T15:17:53;0.00;99.90
18426;DHT22;9340;48.756;9.226;2024-01-11T15:20:20;-0.10;99.90
18426;DHT22;9340;48.756;9.226;2024-01-11T15:22:47;-0.10;99.90
18426;DHT22;9340;48.756;9.226;2024-01-11T15:25:14;-0.20;99.90
18426;DHT22;9340;48.756;9.226;2024-01-11T15:27:42;-0.20;99.90
18426;DHT22;9340;48.756;9.226;2024-01-11T15:30:10;-0.30;99.90
18426;DHT22;9340;48.756;9.226;2024-01-11T15:32:38;-0.30;99.90
18426;DHT22;9340;48.756;9.226;2024-01-11T15:35:05;-0.40;99.90
18426;DHT22;9340;48.756;9.226;2024-01-11T15:37:33;-0.40;99.90
18426;DHT22;9340;48.756;9.226;2024-01-11T15:40:00;-0.50;99.90
18426;DHT22;9340;48.756;9.226;2024-01-11T15:42:27;-0.60;99.90
18426;DHT22;9340;48.756;9.226;2024-01-11T15:44:54;-0.60;99.90
18426;DHT22;9340;48.756;9.226;2024-01-11T15:47:20;-0.70;99.90
18426;DHT22;9340;48.756;9.226;2024-01-11T15:49:48;-0.90;99.90